createdAt,value
2019-04-22T00:00:54.251Z,66.30
2019-04-22T00:03:34.991Z,65.90
2019-04-22T00:06:18.050Z,66.00
2019-04-22T00:08:57.706Z,66.20
2019-04-22T00:11:29.155Z,65.70
2019-04-22T00:14:01.271Z,65.60
2019-04-22T00:16:38.861Z,65.80
2019-04-22T00:21:40.390Z,66.50
2019-04-22T00:24:13.726Z,65.60
2019-04-22T00:26:45.641Z,66.10
2019-04-22T00:29:39.159Z,67.10
2019-04-22T00:32:05.283Z,67.20
2019-04-22T00:34:42.697Z,67.20
2019-04-22T00:37:17.587Z,67.70
2019-04-22T00:39:46.628Z,68.20
2019-04-22T00:42:24.019Z,68.60
2019-04-22T00:44:55.884Z,68.60
2019-04-22T00:47:29.134Z,68.80
2019-04-22T00:52:28.530Z,69.50
2019-04-22T00:55:06.065Z,70.10
2019-04-22T00:57:35.517Z,70.40
2019-04-22T01:00:05.449Z,71.50
2019-04-22T01:02:41.502Z,71.80
2019-04-22T01:05:16.601Z,73.00
2019-04-22T01:07:45.096Z,72.10
2019-04-22T01:10:23.639Z,72.20
2019-04-22T01:12:44.381Z,72.30
2019-04-22T01:15:23.661Z,72.10
2019-04-22T01:17:52.996Z,72.40
2019-04-22T01:20:45.700Z,72.30
2019-04-22T01:22:53.241Z,72.70
2019-04-22T01:25:23.363Z,73.30
2019-04-22T01:27:55.915Z,73.00
2019-04-22T01:30:21.046Z,73.20
2019-04-22T01:32:44.873Z,73.20
2019-04-22T01:35:26.365Z,73.50
2019-04-22T01:38:01.419Z,73.70
2019-04-22T01:40:45.724Z,73.90
2019-04-22T01:43:17.815Z,73.80
2019-04-22T01:45:47.680Z,74.50
2019-04-22T01:48:22.826Z,74.80
2019-04-22T01:50:49.975Z,74.60
2019-04-22T01:53:27.475Z,75.20
2019-04-22T01:55:58.994Z,75.60
2019-04-22T01:58:23.685Z,75.20
2019-04-22T02:01:01.484Z,75.40
2019-04-22T02:03:33.306Z,76.00
2019-04-22T02:06:07.170Z,76.20
2019-04-22T02:11:09.366Z,76.30
2019-04-22T02:13:42.836Z,76.90
2019-04-22T02:16:15.212Z,76.20
2019-04-22T02:18:50.287Z,75.60
2019-04-22T02:21:15.063Z,76.00
2019-04-22T02:23:54.085Z,76.00
2019-04-22T02:26:26.738Z,76.20
2019-04-22T02:29:15.025Z,76.00
2019-04-22T02:34:15.509Z,76.20
2019-04-22T02:36:35.944Z,76.00
2019-04-22T02:39:11.817Z,77.40
2019-04-22T02:44:26.501Z,76.80
2019-04-22T02:51:43.241Z,77.50
2019-04-22T02:54:45.069Z,77.60
2019-04-22T02:56:56.035Z,77.80
2019-04-22T03:01:54.264Z,78.90
2019-04-22T03:04:39.381Z,79.50
2019-04-22T03:06:55.392Z,82.60
2019-04-22T03:14:40.385Z,82.20
2019-04-22T03:17:17.008Z,83.70
2019-04-22T03:22:21.045Z,82.60
2019-04-22T03:27:30.016Z,82.30
2019-04-22T03:30:45.353Z,82.40
2019-04-22T03:33:06.338Z,82.30
2019-04-22T03:37:53.088Z,82.50
2019-04-22T03:40:30.811Z,82.40
2019-04-22T03:47:57.445Z,82.20
2019-04-22T03:58:11.033Z,80.60
2019-04-22T04:00:42.954Z,80.40
2019-04-22T04:03:28.619Z,78.80
2019-04-22T04:10:50.162Z,77.40
2019-04-22T04:13:33.876Z,76.90
2019-04-22T04:15:46.612Z,76.20
2019-04-22T04:18:26.545Z,76.50
2019-04-22T04:23:37.952Z,75.60
2019-04-22T04:26:09.425Z,75.70
2019-04-22T04:31:15.014Z,75.10
2019-04-22T04:33:38.786Z,75.10
2019-04-22T04:36:07.941Z,75.20
2019-04-22T04:38:46.150Z,75.10
2019-04-22T04:41:26.776Z,74.30
2019-04-22T04:43:52.575Z,74.20
2019-04-22T04:46:26.771Z,73.90
2019-04-22T04:51:43.896Z,72.80
2019-04-22T04:54:04.177Z,72.30
2019-04-22T04:56:40.336Z,72.80
2019-04-22T05:04:14.703Z,72.40
2019-04-22T05:06:43.006Z,71.90
2019-04-22T05:09:15.155Z,71.50
2019-04-22T05:12:03.543Z,72.20
2019-04-22T05:14:23.274Z,72.70
2019-04-22T05:19:15.493Z,74.60
2019-04-22T05:21:51.160Z,74.70
2019-04-22T05:24:22.868Z,75.40
2019-04-22T05:29:35.127Z,75.40
2019-04-22T05:32:13.295Z,76.10
2019-04-22T05:34:40.088Z,75.80
2019-04-22T05:37:01.289Z,76.30
2019-04-22T05:39:31.075Z,76.70
2019-04-22T05:42:10.504Z,77.70
2019-04-22T05:44:44.071Z,78.90
2019-04-22T05:47:08.361Z,79.00
2019-04-22T05:49:35.359Z,79.60
2019-04-22T05:52:17.413Z,80.50
2019-04-22T05:54:50.540Z,80.70
2019-04-22T05:57:21.440Z,80.90
2019-04-22T05:59:54.162Z,81.20
2019-04-22T06:02:32.515Z,81.80
2019-04-22T06:05:01.600Z,82.10
2019-04-22T06:07:26.579Z,82.50
2019-04-22T06:10:06.609Z,83.00
2019-04-22T06:12:26.790Z,83.30
2019-04-22T06:15:04.811Z,84.40
2019-04-22T06:17:38.023Z,83.70
2019-04-22T06:20:10.536Z,84.50
2019-04-22T06:22:50.374Z,85.50
2019-04-22T06:25:23.260Z,86.30
2019-04-22T06:27:49.593Z,86.40
2019-04-22T06:30:21.838Z,87.60
2019-04-22T06:32:53.417Z,87.80
2019-04-22T06:35:29.763Z,88.50
2019-04-22T06:43:06.127Z,89.40
2019-04-22T06:48:08.320Z,90.00
2019-04-22T06:53:09.283Z,90.00
2019-04-22T06:55:41.288Z,89.60
2019-04-22T06:58:15.095Z,89.20
2019-04-22T07:03:34.785Z,88.50
2019-04-22T07:05:52.432Z,88.40
2019-04-22T07:08:59.275Z,87.50
2019-04-22T07:10:50.678Z,87.90
2019-04-22T07:13:29.101Z,88.00
2019-04-22T07:15:57.468Z,88.20
2019-04-22T07:18:35.938Z,87.70
2019-04-22T07:21:02.769Z,87.60
2019-04-22T07:26:05.933Z,86.80
2019-04-22T07:28:37.531Z,87.20
2019-04-22T07:31:14.319Z,86.30
2019-04-22T07:33:42.467Z,86.00
2019-04-22T07:36:54.636Z,85.90
2019-04-22T07:38:42.763Z,85.50
2019-04-22T07:41:23.091Z,85.50
2019-04-22T07:46:26.604Z,84.60
2019-04-22T07:48:57.977Z,85.20
2019-04-22T07:51:36.364Z,84.90
2019-04-22T07:54:01.855Z,84.80
2019-04-22T07:56:36.810Z,85.00
2019-04-22T07:59:09.272Z,84.70
2019-04-22T08:01:36.624Z,84.60
2019-04-22T08:09:21.412Z,82.00
2019-04-22T08:11:53.932Z,81.80
2019-04-22T08:14:24.663Z,81.10
2019-04-22T08:17:00.709Z,81.10
2019-04-22T08:19:33.126Z,80.80
2019-04-22T08:22:05.995Z,79.60
2019-04-22T08:24:35.631Z,79.10
2019-04-22T08:27:04.587Z,78.50
2019-04-22T08:29:59.808Z,76.70
2019-04-22T08:32:22.429Z,74.60
2019-04-22T08:34:47.668Z,75.10
2019-04-22T08:40:01.927Z,72.50
2019-04-22T08:43:39.183Z,72.30
2019-04-22T08:45:09.385Z,71.70
2019-04-22T08:47:36.181Z,70.80
2019-04-22T08:50:12.059Z,69.20
2019-04-22T08:52:42.226Z,68.50
2019-04-22T08:55:12.939Z,67.30
2019-04-22T08:58:03.690Z,67.40
2019-04-22T09:00:15.365Z,66.30
2019-04-22T09:02:54.067Z,66.60
2019-04-22T09:05:37.417Z,65.50
2019-04-22T09:07:52.535Z,64.30
2019-04-22T09:10:24.377Z,65.50
2019-04-22T09:13:00.632Z,65.90
2019-04-22T09:15:31.009Z,67.60
2019-04-22T09:18:02.428Z,68.10
2019-04-22T09:23:09.246Z,70.20
2019-04-22T09:25:44.005Z,71.00
2019-04-22T09:28:20.431Z,72.30
2019-04-22T09:30:49.018Z,72.10
2019-04-22T09:33:20.422Z,72.60
2019-04-22T09:36:00.203Z,73.10
2019-04-22T09:38:34.688Z,74.00
2019-04-22T09:40:52.506Z,74.00
2019-04-22T09:43:33.609Z,74.80
2019-04-22T09:46:02.124Z,74.80
2019-04-22T09:48:38.940Z,74.70
2019-04-22T09:51:00.531Z,75.70
2019-04-22T09:53:43.456Z,75.70
2019-04-22T09:56:14.811Z,75.50
2019-04-22T09:58:44.622Z,75.80
2019-04-22T10:01:26.174Z,75.80
2019-04-22T10:06:30.929Z,76.60
2019-04-22T10:14:03.899Z,75.80
2019-04-22T10:16:31.185Z,76.70
2019-04-22T10:19:04.266Z,76.40
2019-04-22T10:21:40.514Z,76.40
2019-04-22T10:26:39.630Z,76.30
2019-04-22T10:29:10.725Z,77.20
2019-04-22T10:31:46.585Z,77.90
2019-04-22T10:34:00.169Z,77.90
2019-04-22T10:36:21.508Z,78.90
2019-04-22T10:38:52.532Z,79.00
2019-04-22T10:41:23.132Z,79.20
2019-04-22T10:43:54.980Z,79.60
2019-04-22T10:46:26.366Z,80.20
2019-04-22T10:48:57.966Z,80.50
2019-04-22T10:51:28.753Z,80.60
2019-04-22T10:53:59.719Z,80.70
2019-04-22T10:56:30.644Z,79.90
2019-04-22T10:59:02.488Z,79.10
2019-04-22T11:01:33.843Z,77.80
2019-04-22T11:04:04.412Z,78.80
2019-04-22T11:06:41.006Z,78.00
2019-04-22T11:09:08.574Z,77.20
2019-04-22T11:11:50.181Z,77.20
2019-04-22T11:14:14.764Z,77.70
2019-04-22T11:16:45.630Z,78.20
2019-04-22T11:19:17.190Z,78.50
2019-04-22T11:22:00.994Z,79.00
2019-04-22T11:24:20.984Z,79.00
2019-04-22T11:26:52.766Z,79.50
2019-04-22T11:29:23.738Z,80.40
2019-04-22T11:31:54.713Z,81.60
2019-04-22T11:34:26.821Z,82.10
2019-04-22T11:36:58.873Z,82.50
2019-04-22T11:39:34.131Z,83.20
2019-04-22T11:42:04.402Z,83.60
2019-04-22T11:44:37.111Z,83.90
2019-04-22T11:47:07.898Z,83.60
2019-04-22T11:49:39.622Z,83.00
2019-04-22T11:52:12.847Z,82.10
2019-04-22T11:54:43.242Z,81.80
2019-04-22T11:57:15.146Z,81.80
2019-04-22T11:59:46.863Z,82.70
2019-04-22T12:02:21.964Z,83.50
2019-04-22T12:04:52.259Z,83.00
2019-04-22T12:07:23.425Z,83.40
2019-04-22T12:09:53.858Z,83.30
2019-04-22T12:12:25.660Z,83.30
2019-04-22T12:17:20.019Z,82.80
2019-04-22T12:19:50.509Z,83.40
2019-04-22T12:22:20.956Z,83.10
2019-04-22T12:24:52.427Z,83.10
2019-04-22T12:27:24.375Z,84.50
2019-04-22T12:29:56.611Z,85.00
2019-04-22T12:32:27.405Z,85.20
2019-04-22T12:34:57.898Z,85.10
2019-04-22T12:37:34.383Z,85.20
2019-04-22T12:40:00.644Z,85.50
2019-04-22T12:42:31.283Z,85.70
2019-04-22T12:45:02.428Z,85.50
2019-04-22T12:47:33.708Z,86.00
2019-04-22T12:50:12.680Z,86.80
2019-04-22T12:52:43.722Z,87.30
2019-04-22T12:55:09.976Z,87.80
2019-04-22T12:57:40.895Z,88.30
2019-04-22T13:00:15.624Z,88.50
2019-04-22T13:02:47.299Z,88.50
2019-04-22T13:05:22.744Z,88.50
2019-04-22T13:07:53.706Z,88.20
2019-04-22T13:10:26.015Z,87.90
2019-04-22T13:12:57.017Z,88.00
2019-04-22T13:15:30.722Z,87.70
2019-04-22T13:18:11.755Z,86.80
2019-04-22T13:20:34.430Z,86.70
2019-04-22T13:23:05.144Z,86.60
2019-04-22T13:25:36.649Z,86.20
2019-04-22T13:28:07.399Z,85.80
2019-04-22T13:30:38.715Z,85.50
2019-04-22T13:33:10.538Z,85.20
2019-04-22T13:35:41.593Z,84.50
2019-04-22T13:38:12.973Z,83.60
2019-04-22T13:40:59.219Z,83.10
2019-04-22T13:43:16.757Z,82.80
2019-04-22T13:45:48.110Z,83.00
2019-04-22T13:48:41.790Z,82.70
2019-04-22T13:51:20.781Z,82.10
2019-04-22T13:54:14.047Z,81.50
2019-04-22T13:56:20.562Z,80.60
2019-04-22T13:58:39.530Z,80.50
2019-04-22T14:01:04.954Z,81.00
2019-04-22T14:03:54.436Z,80.90
2019-04-22T14:06:25.141Z,81.00
2019-04-22T14:08:56.173Z,80.80
2019-04-22T14:11:39.031Z,80.90
2019-04-22T14:13:58.715Z,81.20
2019-04-22T14:16:31.131Z,80.70
2019-04-22T14:19:02.128Z,81.30
2019-04-22T14:21:34.657Z,79.60
2019-04-22T14:24:07.048Z,79.90
2019-04-22T14:26:51.731Z,80.70
2019-04-22T14:29:09.654Z,81.10
2019-04-22T14:31:40.539Z,80.40
2019-04-22T14:34:13.787Z,80.00
2019-04-22T14:36:45.888Z,80.30
2019-04-22T14:39:17.692Z,80.50
2019-04-22T14:42:06.493Z,80.60
2019-04-22T14:45:16.921Z,81.40
2019-04-22T14:49:48.095Z,80.50
2019-04-22T14:52:24.700Z,80.60
2019-04-22T14:54:41.288Z,80.40
2019-04-22T14:57:05.181Z,79.70
2019-04-22T14:59:35.868Z,78.50
2019-04-22T15:02:07.609Z,79.00
2019-04-22T15:04:39.652Z,78.40
2019-04-22T15:07:10.745Z,78.50
2019-04-22T15:09:41.971Z,79.40
2019-04-22T15:12:20.653Z,80.00
2019-04-22T15:14:45.736Z,80.00
2019-04-22T15:17:24.953Z,80.50
2019-04-22T15:20:17.539Z,81.20
2019-04-22T15:22:48.420Z,80.50
2019-04-22T15:25:19.060Z,81.00
2019-04-22T15:27:51.076Z,81.40
2019-04-22T15:30:21.680Z,80.00
2019-04-22T15:32:53.578Z,80.20
2019-04-22T15:35:25.273Z,85.10
2019-04-22T15:37:57.192Z,87.00
2019-04-22T15:40:31.008Z,89.30
2019-04-22T15:43:02.657Z,90.00
2019-04-22T15:45:35.003Z,89.30
2019-04-22T15:48:06.162Z,90.40
2019-04-22T15:50:36.878Z,90.70
2019-04-22T15:53:07.730Z,90.80
2019-04-22T15:55:39.007Z,90.90
2019-04-22T15:58:10.156Z,91.20
2019-04-22T16:00:51.742Z,91.80
2019-04-22T16:03:14.296Z,92.00
2019-04-22T16:05:46.077Z,91.50
2019-04-22T16:08:17.146Z,92.00
2019-04-22T16:10:48.192Z,90.90
2019-04-22T16:13:24.392Z,90.50
2019-04-22T16:15:52.368Z,89.70
2019-04-22T16:18:24.406Z,86.90
2019-04-22T16:20:56.314Z,86.90
2019-04-22T16:23:38.458Z,86.50
2019-04-22T16:26:20.100Z,86.30
2019-04-22T16:28:53.970Z,87.40
2019-04-22T16:31:24.961Z,86.20
2019-04-22T16:33:56.359Z,86.50
2019-04-22T16:36:26.993Z,86.70
2019-04-22T16:38:57.729Z,86.20
2019-04-22T16:41:28.847Z,85.60
2019-04-22T16:44:04.560Z,85.60
2019-04-22T16:46:35.075Z,85.50
2019-04-22T16:49:05.947Z,86.00
2019-04-22T16:51:38.055Z,86.40
2019-04-22T16:54:11.673Z,86.70
2019-04-22T16:56:43.752Z,85.70
2019-04-22T16:59:14.975Z,85.80
2019-04-22T17:02:04.421Z,85.60
2019-04-22T17:04:57.743Z,85.90
2019-04-22T17:07:29.973Z,85.60
2019-04-22T17:10:01.919Z,85.10
2019-04-22T17:12:45.793Z,85.10
2019-04-22T17:15:10.147Z,85.20
2019-04-22T17:17:41.239Z,85.10
2019-04-22T17:20:13.278Z,84.50
2019-04-22T17:22:44.068Z,84.60
2019-04-22T17:25:16.189Z,84.60
2019-04-22T17:27:47.490Z,84.30
2019-04-22T17:30:18.483Z,84.30
2019-04-22T17:32:50.427Z,84.20
2019-04-22T17:35:22.085Z,84.40
2019-04-22T17:38:02.942Z,83.10
2019-04-22T17:40:43.873Z,83.10
2019-04-22T17:43:29.842Z,83.30
2019-04-22T17:46:15.066Z,83.00
2019-04-22T17:48:58.913Z,83.00
2019-04-22T17:51:36.327Z,82.90
2019-04-22T17:54:02.403Z,82.90
2019-04-22T17:56:37.518Z,83.20
2019-04-22T17:59:11.739Z,82.70
2019-04-22T18:01:38.285Z,82.70
2019-04-22T18:03:56.903Z,82.70
2019-04-22T18:06:48.917Z,82.50
2019-04-22T18:09:28.373Z,82.30
2019-04-22T18:11:50.933Z,82.10
2019-04-22T18:14:36.400Z,82.50
2019-04-22T18:16:52.123Z,82.40
2019-04-22T18:19:26.322Z,82.10
2019-04-22T18:21:54.826Z,82.30
2019-04-22T18:24:19.999Z,82.10
2019-04-22T18:27:18.550Z,82.00
2019-04-22T18:29:34.364Z,82.20
2019-04-22T18:31:58.065Z,82.40
2019-04-22T18:34:32.491Z,82.30
2019-04-22T18:37:11.772Z,82.40
2019-04-22T18:39:46.638Z,82.20
2019-04-22T18:42:16.047Z,82.50
2019-04-22T18:44:55.351Z,83.20
2019-04-22T18:47:18.554Z,83.10
2019-04-22T18:49:49.257Z,83.30
2019-04-22T18:53:07.028Z,83.80
2019-04-22T18:55:38.748Z,83.50
2019-04-22T18:58:09.061Z,82.30
2019-04-22T19:00:34.247Z,81.80
2019-04-22T19:03:13.219Z,82.20
2019-04-22T19:05:57.058Z,82.00
2019-04-22T19:08:31.664Z,81.50
2019-04-22T19:16:30.862Z,80.90
2019-04-22T19:18:41.545Z,80.40
2019-04-22T19:21:13.623Z,80.80
2019-04-22T19:23:45.167Z,80.30
2019-04-22T19:26:27.856Z,80.10
2019-04-22T19:28:49.686Z,80.60
2019-04-22T19:31:24.782Z,80.60
2019-04-22T19:33:56.191Z,80.70
2019-04-22T19:36:28.989Z,80.60
2019-04-22T19:38:52.611Z,80.80
2019-04-22T19:41:32.207Z,81.30
2019-04-22T19:44:05.506Z,80.80
2019-04-22T19:46:28.196Z,80.90
2019-04-22T19:49:10.559Z,81.20
2019-04-22T19:51:45.801Z,81.00
2019-04-22T19:54:07.835Z,81.00
2019-04-22T19:56:36.471Z,81.60
2019-04-22T19:59:12.098Z,81.40
2019-04-22T20:02:01.077Z,82.10
2019-04-22T20:05:21.998Z,82.00
2019-04-22T20:07:41.832Z,82.20
2019-04-22T20:10:22.464Z,82.40
2019-04-22T20:12:51.548Z,82.60
2019-04-22T20:15:21.009Z,82.90
2019-04-22T20:18:20.887Z,83.00
2019-04-22T20:20:34.363Z,83.00
2019-04-22T20:22:57.494Z,83.60
2019-04-22T20:25:30.650Z,83.90
2019-04-22T20:28:07.463Z,83.90
2019-04-22T20:30:39.956Z,83.60
2019-04-22T20:33:05.355Z,84.00
2019-04-22T20:35:46.594Z,84.20
2019-04-22T20:38:14.906Z,84.20
2019-04-22T20:40:42.711Z,84.10
2019-04-22T20:43:23.592Z,83.40
2019-04-22T20:45:51.152Z,83.20
2019-04-22T20:48:13.005Z,83.50
2019-04-22T20:50:54.872Z,83.60
2019-04-22T20:53:29.874Z,83.50
2019-04-22T20:56:00.722Z,83.70
2019-04-22T20:58:35.379Z,83.60
2019-04-22T21:00:55.646Z,83.90
2019-04-22T21:03:28.478Z,83.70
2019-04-22T21:06:05.955Z,84.20
2019-04-22T21:08:42.285Z,84.50
2019-04-22T21:11:12.734Z,84.70
2019-04-22T21:13:46.820Z,84.80
2019-04-22T21:16:23.753Z,84.70
2019-04-22T21:18:49.494Z,85.00
2019-04-22T21:21:28.126Z,85.20
2019-04-22T21:23:51.415Z,85.30
2019-04-22T21:26:24.137Z,85.50
2019-04-22T21:28:58.420Z,85.50
2019-04-22T21:31:33.536Z,85.50
2019-04-22T21:34:04.138Z,85.60
2019-04-22T21:36:43.153Z,85.10
2019-04-22T21:39:08.282Z,84.30
2019-04-22T21:41:44.746Z,84.80
2019-04-22T21:44:14.297Z,84.30
2019-04-22T21:46:51.073Z,84.40
2019-04-22T21:49:23.045Z,84.60
2019-04-22T21:51:54.062Z,84.20
2019-04-22T21:54:28.638Z,84.20
2019-04-22T21:57:14.028Z,83.80
2019-04-22T21:59:35.276Z,83.60
2019-04-22T22:02:16.183Z,84.10
2019-04-22T22:04:44.817Z,84.10
2019-04-22T22:07:09.697Z,84.00
2019-04-22T22:09:54.190Z,84.10
2019-04-22T22:12:24.648Z,85.00
2019-04-22T22:15:00.366Z,84.80
2019-04-22T22:17:33.369Z,85.70
2019-04-22T22:19:57.846Z,87.40
2019-04-22T22:22:45.531Z,89.50
2019-04-22T22:25:07.777Z,89.30
2019-04-22T22:27:35.422Z,89.10
2019-04-22T22:30:29.490Z,88.80
2019-04-22T22:32:49.814Z,89.10
2019-04-22T22:35:16.843Z,89.50
2019-04-22T22:37:50.601Z,90.00
2019-04-22T22:40:09.472Z,90.50
2019-04-22T22:42:38.756Z,90.80
2019-04-22T22:45:14.398Z,91.00
2019-04-22T22:48:07.707Z,91.30
2019-04-22T22:50:36.013Z,91.60
2019-04-22T22:53:18.968Z,91.70
2019-04-22T22:55:37.447Z,91.70
2019-04-22T22:58:14.195Z,91.60
2019-04-22T23:00:39.401Z,91.50
2019-04-22T23:03:36.441Z,91.00
2019-04-22T23:05:54.991Z,91.00
2019-04-22T23:08:26.207Z,90.90
2019-04-22T23:11:00.706Z,91.00
2019-04-22T23:13:33.515Z,91.10
2019-04-22T23:15:50.174Z,91.40
2019-04-22T23:18:10.195Z,91.80
2019-04-22T23:20:47.276Z,91.90
2019-04-22T23:23:33.410Z,92.10
2019-04-22T23:26:07.017Z,92.40
2019-04-22T23:28:50.853Z,93.00
2019-04-22T23:31:29.259Z,94.40
2019-04-22T23:34:07.912Z,95.20
2019-04-22T23:37:06.957Z,95.40
2019-04-22T23:39:49.927Z,95.80
2019-04-22T23:42:18.944Z,95.70
2019-04-22T23:44:50.115Z,96.00
2019-04-22T23:47:18.504Z,96.30
2019-04-22T23:49:56.087Z,97.00
2019-04-22T23:52:28.686Z,97.80
2019-04-22T23:55:08.812Z,97.90
2019-04-22T23:57:43.784Z,97.90
